sensor_id;sensor_type;location;lat;lon;timestamp;P1;durP1;ratioP1;P2;durP2;ratioP2
69511;SDS011;56709;52.036;4.644;2022-07-23T00:01:26;5.40;;;3.53;;
69511;SDS011;56709;52.036;4.644;2022-07-23T00:03:52;4.70;;;3.30;;
69511;SDS011;56709;52.036;4.644;2022-07-23T00:06:19;6.05;;;3.58;;
69511;SDS011;56709;52.036;4.644;2022-07-23T00:08:44;8.05;;;3.65;;
69511;SDS011;56709;52.036;4.644;2022-07-23T00:11:10;4.60;;;3.45;;
69511;SDS011;56709;52.036;4.644;2022-07-23T00:13:35;6.43;;;3.67;;
69511;SDS011;56709;52.036;4.644;2022-07-23T00:16:01;6.72;;;3.30;;
69511;SDS011;56709;52.036;4.644;2022-07-23T00:18:26;6.75;;;3.75;;
69511;SDS011;56709;52.036;4.644;2022-07-23T00:20:52;7.80;;;3.42;;
69511;SDS011;56709;52.036;4.644;2022-07-23T00:23:17;8.82;;;3.30;;
69511;SDS011;56709;52.036;4.644;2022-07-23T00:25:43;5.78;;;3.42;;
69511;SDS011;56709;52.036;4.644;2022-07-23T00:28:10;6.70;;;3.80;;
69511;SDS011;56709;52.036;4.644;2022-07-23T00:30:36;6.57;;;3.80;;
69511;SDS011;56709;52.036;4.644;2022-07-23T00:33:02;6.68;;;3.60;;
69511;SDS011;56709;52.036;4.644;2022-07-23T00:35:31;8.15;;;3.58;;
69511;SDS011;56709;52.036;4.644;2022-07-23T00:37:58;8.57;;;3.70;;
69511;SDS011;56709;52.036;4.644;2022-07-23T00:40:24;7.60;;;3.60;;
69511;SDS011;56709;52.036;4.644;2022-07-23T00:42:50;6.20;;;3.72;;
69511;SDS011;56709;52.036;4.644;2022-07-23T00:45:15;8.38;;;4.55;;
69511;SDS011;56709;52.036;4.644;2022-07-23T00:47:41;8.10;;;4.57;;
69511;SDS011;56709;52.036;4.644;2022-07-23T00:50:07;10.82;;;3.92;;
69511;SDS011;56709;52.036;4.644;2022-07-23T00:54:59;11.90;;;7.93;;
69511;SDS011;56709;52.036;4.644;2022-07-23T00:57:25;9.20;;;6.03;;
69511;SDS011;56709;52.036;4.644;2022-07-23T00:59:51;8.20;;;4.47;;
69511;SDS011;56709;52.036;4.644;2022-07-23T01:02:16;8.05;;;3.83;;
69511;SDS011;56709;52.036;4.644;2022-07-23T01:04:42;6.05;;;3.58;;
69511;SDS011;56709;52.036;4.644;2022-07-23T01:07:07;7.82;;;3.70;;
69511;SDS011;56709;52.036;4.644;2022-07-23T01:09:33;8.75;;;3.30;;
69511;SDS011;56709;52.036;4.644;2022-07-23T01:11:58;6.70;;;3.67;;
69511;SDS011;56709;52.036;4.644;2022-07-23T01:14:24;7.43;;;3.80;;
69511;SDS011;56709;52.036;4.644;2022-07-23T01:16:50;8.82;;;3.95;;
69511;SDS011;56709;52.036;4.644;2022-07-23T01:19:15;8.10;;;4.25;;
69511;SDS011;56709;52.036;4.644;2022-07-23T01:21:42;7.05;;;3.70;;
69511;SDS011;56709;52.036;4.644;2022-07-23T01:24:09;9.07;;;4.55;;
69511;SDS011;56709;52.036;4.644;2022-07-23T01:26:36;7.05;;;3.72;;
69511;SDS011;56709;52.036;4.644;2022-07-23T01:29:02;7.22;;;3.47;;
69511;SDS011;56709;52.036;4.644;2022-07-23T01:31:28;5.13;;;3.33;;
69511;SDS011;56709;52.036;4.644;2022-07-23T01:33:53;6.78;;;3.92;;
69511;SDS011;56709;52.036;4.644;2022-07-23T01:36:19;7.88;;;4.00;;
69511;SDS011;56709;52.036;4.644;2022-07-23T01:38:44;8.07;;;3.90;;
69511;SDS011;56709;52.036;4.644;2022-07-23T01:41:10;10.32;;;4.47;;
69511;SDS011;56709;52.036;4.644;2022-07-23T01:43:35;7.93;;;4.38;;
69511;SDS011;56709;52.036;4.644;2022-07-23T01:46:00;8.90;;;4.97;;
69511;SDS011;56709;52.036;4.644;2022-07-23T01:48:26;8.25;;;4.15;;
69511;SDS011;56709;52.036;4.644;2022-07-23T01:50:51;7.60;;;4.20;;
69511;SDS011;56709;52.036;4.644;2022-07-23T01:53:17;9.60;;;4.10;;
69511;SDS011;56709;52.036;4.644;2022-07-23T01:55:42;8.70;;;4.22;;
69511;SDS011;56709;52.036;4.644;2022-07-23T01:58:07;7.85;;;4.35;;
69511;SDS011;56709;52.036;4.644;2022-07-23T02:00:33;12.00;;;5.10;;
69511;SDS011;56709;52.036;4.644;2022-07-23T02:02:59;8.95;;;4.53;;
69511;SDS011;56709;52.036;4.644;2022-07-23T02:05:24;10.63;;;4.82;;
69511;SDS011;56709;52.036;4.644;2022-07-23T02:07:50;7.72;;;4.78;;
69511;SDS011;56709;52.036;4.644;2022-07-23T02:10:16;8.75;;;4.40;;
69511;SDS011;56709;52.036;4.644;2022-07-23T02:12:41;12.32;;;5.18;;
69511;SDS011;56709;52.036;4.644;2022-07-23T02:15:07;11.27;;;4.38;;
69511;SDS011;56709;52.036;4.644;2022-07-23T02:17:33;8.65;;;4.32;;
69511;SDS011;56709;52.036;4.644;2022-07-23T02:19:58;8.60;;;4.55;;
69511;SDS011;56709;52.036;4.644;2022-07-23T02:22:23;9.20;;;4.72;;
69511;SDS011;56709;52.036;4.644;2022-07-23T02:24:49;10.38;;;4.95;;
69511;SDS011;56709;52.036;4.644;2022-07-23T02:27:14;8.07;;;4.60;;
69511;SDS011;56709;52.036;4.644;2022-07-23T02:29:39;9.77;;;4.35;;
69511;SDS011;56709;52.036;4.644;2022-07-23T02:32:05;9.32;;;4.93;;
69511;SDS011;56709;52.036;4.644;2022-07-23T02:34:30;8.73;;;4.85;;
69511;SDS011;56709;52.036;4.644;2022-07-23T02:36:56;10.55;;;4.80;;
69511;SDS011;56709;52.036;4.644;2022-07-23T02:39:21;8.90;;;4.32;;
69511;SDS011;56709;52.036;4.644;2022-07-23T02:41:46;10.23;;;5.05;;
69511;SDS011;56709;52.036;4.644;2022-07-23T02:44:12;10.77;;;5.40;;
69511;SDS011;56709;52.036;4.644;2022-07-23T02:46:37;7.90;;;4.93;;
69511;SDS011;56709;52.036;4.644;2022-07-23T02:49:03;9.50;;;4.63;;
69511;SDS011;56709;52.036;4.644;2022-07-23T02:51:29;10.67;;;4.33;;
69511;SDS011;56709;52.036;4.644;2022-07-23T02:53:55;11.57;;;4.88;;
69511;SDS011;56709;52.036;4.644;2022-07-23T02:56:20;11.02;;;5.07;;
69511;SDS011;56709;52.036;4.644;2022-07-23T02:58:46;10.30;;;4.93;;
69511;SDS011;56709;52.036;4.644;2022-07-23T03:01:11;10.60;;;6.10;;
69511;SDS011;56709;52.036;4.644;2022-07-23T03:03:37;10.35;;;5.32;;
69511;SDS011;56709;52.036;4.644;2022-07-23T03:06:02;10.75;;;5.47;;
69511;SDS011;56709;52.036;4.644;2022-07-23T03:08:28;11.38;;;5.20;;
69511;SDS011;56709;52.036;4.644;2022-07-23T03:10:53;12.48;;;5.13;;
69511;SDS011;56709;52.036;4.644;2022-07-23T03:13:19;10.70;;;5.43;;
69511;SDS011;56709;52.036;4.644;2022-07-23T03:15:44;11.30;;;5.20;;
69511;SDS011;56709;52.036;4.644;2022-07-23T03:18:10;8.65;;;5.68;;
69511;SDS011;56709;52.036;4.644;2022-07-23T03:20:35;8.73;;;5.00;;
69511;SDS011;56709;52.036;4.644;2022-07-23T03:23:01;13.18;;;5.50;;
69511;SDS011;56709;52.036;4.644;2022-07-23T03:25:26;11.45;;;5.55;;
69511;SDS011;56709;52.036;4.644;2022-07-23T03:27:51;9.23;;;5.95;;
69511;SDS011;56709;52.036;4.644;2022-07-23T03:30:17;12.63;;;5.47;;
69511;SDS011;56709;52.036;4.644;2022-07-23T03:32:42;12.23;;;5.75;;
69511;SDS011;56709;52.036;4.644;2022-07-23T03:35:08;13.30;;;5.78;;
69511;SDS011;56709;52.036;4.644;2022-07-23T03:37:33;12.18;;;6.18;;
69511;SDS011;56709;52.036;4.644;2022-07-23T03:39:59;8.98;;;5.30;;
69511;SDS011;56709;52.036;4.644;2022-07-23T03:42:24;9.68;;;5.50;;
69511;SDS011;56709;52.036;4.644;2022-07-23T03:44:49;8.70;;;5.40;;
69511;SDS011;56709;52.036;4.644;2022-07-23T03:47:15;10.00;;;5.82;;
69511;SDS011;56709;52.036;4.644;2022-07-23T03:49:42;12.68;;;5.80;;
69511;SDS011;56709;52.036;4.644;2022-07-23T03:52:08;10.43;;;5.25;;
69511;SDS011;56709;52.036;4.644;2022-07-23T03:54:33;14.10;;;5.05;;
69511;SDS011;56709;52.036;4.644;2022-07-23T03:56:58;8.82;;;5.43;;
69511;SDS011;56709;52.036;4.644;2022-07-23T03:59:24;11.23;;;5.30;;
69511;SDS011;56709;52.036;4.644;2022-07-23T04:01:50;8.13;;;5.13;;
69511;SDS011;56709;52.036;4.644;2022-07-23T04:04:15;14.32;;;5.28;;
69511;SDS011;56709;52.036;4.644;2022-07-23T04:06:41;9.35;;;5.00;;
69511;SDS011;56709;52.036;4.644;2022-07-23T04:09:06;9.63;;;4.97;;
69511;SDS011;56709;52.036;4.644;2022-07-23T04:11:31;8.02;;;5.15;;
69511;SDS011;56709;52.036;4.644;2022-07-23T04:13:57;10.52;;;4.90;;
69511;SDS011;56709;52.036;4.644;2022-07-23T04:16:22;12.30;;;5.25;;
69511;SDS011;56709;52.036;4.644;2022-07-23T04:18:47;9.60;;;4.70;;
69511;SDS011;56709;52.036;4.644;2022-07-23T04:21:13;10.65;;;4.97;;
69511;SDS011;56709;52.036;4.644;2022-07-23T04:23:38;8.52;;;5.15;;
69511;SDS011;56709;52.036;4.644;2022-07-23T04:26:04;9.18;;;5.57;;
69511;SDS011;56709;52.036;4.644;2022-07-23T04:28:29;9.35;;;5.38;;
69511;SDS011;56709;52.036;4.644;2022-07-23T04:30:58;8.43;;;5.10;;
69511;SDS011;56709;52.036;4.644;2022-07-23T04:33:23;10.77;;;5.22;;
69511;SDS011;56709;52.036;4.644;2022-07-23T04:35:49;12.85;;;5.75;;
69511;SDS011;56709;52.036;4.644;2022-07-23T04:38:14;9.98;;;5.82;;
69511;SDS011;56709;52.036;4.644;2022-07-23T04:40:40;9.05;;;5.30;;
69511;SDS011;56709;52.036;4.644;2022-07-23T04:43:05;9.00;;;6.05;;
69511;SDS011;56709;52.036;4.644;2022-07-23T04:45:30;11.25;;;6.15;;
69511;SDS011;56709;52.036;4.644;2022-07-23T04:47:56;12.52;;;5.85;;
69511;SDS011;56709;52.036;4.644;2022-07-23T04:50:22;11.73;;;5.57;;
69511;SDS011;56709;52.036;4.644;2022-07-23T04:52:48;8.95;;;5.47;;
69511;SDS011;56709;52.036;4.644;2022-07-23T04:55:14;10.30;;;4.82;;
69511;SDS011;56709;52.036;4.644;2022-07-23T04:57:39;12.35;;;5.60;;
69511;SDS011;56709;52.036;4.644;2022-07-23T05:00:05;11.75;;;5.55;;
69511;SDS011;56709;52.036;4.644;2022-07-23T05:02:31;9.23;;;5.32;;
69511;SDS011;56709;52.036;4.644;2022-07-23T05:04:56;8.45;;;5.15;;
69511;SDS011;56709;52.036;4.644;2022-07-23T05:07:21;11.02;;;5.53;;
69511;SDS011;56709;52.036;4.644;2022-07-23T05:09:47;9.25;;;5.28;;
69511;SDS011;56709;52.036;4.644;2022-07-23T05:12:12;8.85;;;5.68;;
69511;SDS011;56709;52.036;4.644;2022-07-23T05:14:38;9.30;;;5.88;;
69511;SDS011;56709;52.036;4.644;2022-07-23T05:17:04;8.73;;;5.22;;
69511;SDS011;56709;52.036;4.644;2022-07-23T05:19:30;10.63;;;5.68;;
69511;SDS011;56709;52.036;4.644;2022-07-23T05:21:56;10.48;;;5.25;;
69511;SDS011;56709;52.036;4.644;2022-07-23T05:24:21;8.35;;;5.13;;
69511;SDS011;56709;52.036;4.644;2022-07-23T05:26:47;9.40;;;4.97;;
69511;SDS011;56709;52.036;4.644;2022-07-23T05:29:12;11.80;;;5.95;;
69511;SDS011;56709;52.036;4.644;2022-07-23T05:31:37;11.80;;;5.20;;
69511;SDS011;56709;52.036;4.644;2022-07-23T05:34:06;16.27;;;5.75;;
69511;SDS011;56709;52.036;4.644;2022-07-23T05:36:31;11.48;;;5.28;;
69511;SDS011;56709;52.036;4.644;2022-07-23T05:38:57;11.77;;;5.57;;
69511;SDS011;56709;52.036;4.644;2022-07-23T05:41:23;10.63;;;5.65;;
69511;SDS011;56709;52.036;4.644;2022-07-23T05:43:48;9.68;;;5.35;;
69511;SDS011;56709;52.036;4.644;2022-07-23T05:46:14;8.60;;;4.85;;
69511;SDS011;56709;52.036;4.644;2022-07-23T05:48:39;10.40;;;5.43;;
69511;SDS011;56709;52.036;4.644;2022-07-23T05:51:05;10.32;;;5.25;;
69511;SDS011;56709;52.036;4.644;2022-07-23T05:53:32;11.18;;;5.63;;
69511;SDS011;56709;52.036;4.644;2022-07-23T05:55:57;9.07;;;4.93;;
69511;SDS011;56709;52.036;4.644;2022-07-23T05:58:23;11.63;;;4.78;;
69511;SDS011;56709;52.036;4.644;2022-07-23T06:00:48;10.27;;;4.90;;
69511;SDS011;56709;52.036;4.644;2022-07-23T06:03:14;7.45;;;3.90;;
69511;SDS011;56709;52.036;4.644;2022-07-23T06:05:39;9.73;;;4.45;;
69511;SDS011;56709;52.036;4.644;2022-07-23T06:08:05;8.18;;;4.22;;
69511;SDS011;56709;52.036;4.644;2022-07-23T06:10:30;8.45;;;4.07;;
69511;SDS011;56709;52.036;4.644;2022-07-23T06:12:56;5.57;;;3.45;;
69511;SDS011;56709;52.036;4.644;2022-07-23T06:15:21;6.75;;;3.42;;
69511;SDS011;56709;52.036;4.644;2022-07-23T06:17:47;6.40;;;3.50;;
69511;SDS011;56709;52.036;4.644;2022-07-23T06:20:12;8.18;;;3.30;;
69511;SDS011;56709;52.036;4.644;2022-07-23T06:22:37;6.88;;;3.30;;
69511;SDS011;56709;52.036;4.644;2022-07-23T06:25:03;6.78;;;3.08;;
69511;SDS011;56709;52.036;4.644;2022-07-23T06:27:29;9.73;;;3.25;;
69511;SDS011;56709;52.036;4.644;2022-07-23T06:29:54;3.72;;;2.33;;
69511;SDS011;56709;52.036;4.644;2022-07-23T06:32:20;5.25;;;2.58;;
69511;SDS011;56709;52.036;4.644;2022-07-23T06:34:45;6.18;;;2.40;;
69511;SDS011;56709;52.036;4.644;2022-07-23T06:37:11;5.85;;;2.50;;
69511;SDS011;56709;52.036;4.644;2022-07-23T06:39:36;8.02;;;2.60;;
69511;SDS011;56709;52.036;4.644;2022-07-23T06:42:02;2.90;;;1.55;;
69511;SDS011;56709;52.036;4.644;2022-07-23T06:44:27;5.93;;;2.35;;
69511;SDS011;56709;52.036;4.644;2022-07-23T06:46:53;5.82;;;2.47;;
69511;SDS011;56709;52.036;4.644;2022-07-23T06:49:18;4.68;;;2.65;;
69511;SDS011;56709;52.036;4.644;2022-07-23T06:51:44;4.13;;;2.30;;
69511;SDS011;56709;52.036;4.644;2022-07-23T06:54:10;4.50;;;2.17;;
69511;SDS011;56709;52.036;4.644;2022-07-23T06:56:35;7.93;;;2.83;;
69511;SDS011;56709;52.036;4.644;2022-07-23T06:59:01;5.20;;;2.13;;
69511;SDS011;56709;52.036;4.644;2022-07-23T07:01:26;6.00;;;2.72;;
69511;SDS011;56709;52.036;4.644;2022-07-23T07:03:52;6.93;;;3.05;;
69511;SDS011;56709;52.036;4.644;2022-07-23T07:06:17;3.45;;;2.20;;
69511;SDS011;56709;52.036;4.644;2022-07-23T07:08:43;3.58;;;2.50;;
69511;SDS011;56709;52.036;4.644;2022-07-23T07:11:09;4.97;;;2.45;;
69511;SDS011;56709;52.036;4.644;2022-07-23T07:13:34;8.82;;;2.90;;
69511;SDS011;56709;52.036;4.644;2022-07-23T07:16:00;6.43;;;2.90;;
69511;SDS011;56709;52.036;4.644;2022-07-23T07:18:26;5.28;;;2.75;;
69511;SDS011;56709;52.036;4.644;2022-07-23T07:20:51;5.30;;;2.35;;
69511;SDS011;56709;52.036;4.644;2022-07-23T07:23:20;9.93;;;2.42;;
69511;SDS011;56709;52.036;4.644;2022-07-23T07:25:46;4.63;;;1.92;;
69511;SDS011;56709;52.036;4.644;2022-07-23T07:28:11;6.55;;;3.25;;
69511;SDS011;56709;52.036;4.644;2022-07-23T07:30:37;3.83;;;2.28;;
69511;SDS011;56709;52.036;4.644;2022-07-23T07:33:03;6.75;;;2.65;;
69511;SDS011;56709;52.036;4.644;2022-07-23T07:35:28;4.28;;;2.40;;
69511;SDS011;56709;52.036;4.644;2022-07-23T07:37:54;5.10;;;1.90;;
69511;SDS011;56709;52.036;4.644;2022-07-23T07:40:19;4.05;;;1.90;;
69511;SDS011;56709;52.036;4.644;2022-07-23T07:42:49;6.68;;;2.13;;
69511;SDS011;56709;52.036;4.644;2022-07-23T07:45:15;4.97;;;2.10;;
69511;SDS011;56709;52.036;4.644;2022-07-23T07:47:41;3.38;;;2.05;;
69511;SDS011;56709;52.036;4.644;2022-07-23T07:50:07;4.63;;;2.33;;
69511;SDS011;56709;52.036;4.644;2022-07-23T07:52:33;3.75;;;1.75;;
69511;SDS011;56709;52.036;4.644;2022-07-23T07:55:01;3.88;;;1.75;;
69511;SDS011;56709;52.036;4.644;2022-07-23T07:59:53;7.47;;;2.33;;
69511;SDS011;56709;52.036;4.644;2022-07-23T08:02:18;9.93;;;2.20;;
69511;SDS011;56709;52.036;4.644;2022-07-23T08:04:44;6.85;;;2.30;;
69511;SDS011;56709;52.036;4.644;2022-07-23T08:07:09;3.50;;;1.98;;
69511;SDS011;56709;52.036;4.644;2022-07-23T08:09:35;5.53;;;2.05;;
69511;SDS011;56709;52.036;4.644;2022-07-23T08:12:00;4.40;;;1.73;;
69511;SDS011;56709;52.036;4.644;2022-07-23T08:14:26;3.03;;;1.60;;
69511;SDS011;56709;52.036;4.644;2022-07-23T08:16:51;3.28;;;1.48;;
69511;SDS011;56709;52.036;4.644;2022-07-23T08:19:17;3.45;;;1.70;;
69511;SDS011;56709;52.036;4.644;2022-07-23T08:21:42;4.55;;;1.80;;
69511;SDS011;56709;52.036;4.644;2022-07-23T08:24:07;3.43;;;1.47;;
69511;SDS011;56709;52.036;4.644;2022-07-23T08:26:33;5.57;;;2.03;;
69511;SDS011;56709;52.036;4.644;2022-07-23T08:28:58;8.68;;;2.13;;
69511;SDS011;56709;52.036;4.644;2022-07-23T08:31:23;4.00;;;1.75;;
69511;SDS011;56709;52.036;4.644;2022-07-23T08:33:49;4.17;;;1.70;;
69511;SDS011;56709;52.036;4.644;2022-07-23T08:36:14;6.87;;;1.87;;
69511;SDS011;56709;52.036;4.644;2022-07-23T08:38:43;4.18;;;2.03;;
69511;SDS011;56709;52.036;4.644;2022-07-23T08:41:09;5.22;;;1.77;;
69511;SDS011;56709;52.036;4.644;2022-07-23T08:43:34;6.73;;;2.03;;
69511;SDS011;56709;52.036;4.644;2022-07-23T08:46:01;4.27;;;1.70;;
69511;SDS011;56709;52.036;4.644;2022-07-23T08:48:31;3.75;;;1.90;;
69511;SDS011;56709;52.036;4.644;2022-07-23T08:50:58;4.35;;;1.50;;
69511;SDS011;56709;52.036;4.644;2022-07-23T08:53:25;2.83;;;1.45;;
69511;SDS011;56709;52.036;4.644;2022-07-23T08:55:52;4.30;;;1.90;;
69511;SDS011;56709;52.036;4.644;2022-07-23T08:58:19;3.15;;;1.45;;
69511;SDS011;56709;52.036;4.644;2022-07-23T09:00:46;2.60;;;1.60;;
69511;SDS011;56709;52.036;4.644;2022-07-23T09:03:19;5.43;;;2.63;;
69511;SDS011;56709;52.036;4.644;2022-07-23T09:05:46;3.30;;;1.98;;
69511;SDS011;56709;52.036;4.644;2022-07-23T09:08:13;4.97;;;1.80;;
69511;SDS011;56709;52.036;4.644;2022-07-23T09:10:43;4.32;;;1.95;;
69511;SDS011;56709;52.036;4.644;2022-07-23T09:15:51;4.28;;;1.70;;
69511;SDS011;56709;52.036;4.644;2022-07-23T09:18:18;3.13;;;1.92;;
69511;SDS011;56709;52.036;4.644;2022-07-23T09:20:43;6.70;;;2.40;;
69511;SDS011;56709;52.036;4.644;2022-07-23T09:23:09;4.07;;;1.90;;
69511;SDS011;56709;52.036;4.644;2022-07-23T09:25:35;2.90;;;1.60;;
69511;SDS011;56709;52.036;4.644;2022-07-23T09:28:00;5.03;;;1.63;;
69511;SDS011;56709;52.036;4.644;2022-07-23T09:30:29;4.75;;;1.60;;
69511;SDS011;56709;52.036;4.644;2022-07-23T09:33:11;4.80;;;1.67;;
69511;SDS011;56709;52.036;4.644;2022-07-23T09:38:18;3.83;;;1.95;;
69511;SDS011;56709;52.036;4.644;2022-07-23T09:40:45;4.10;;;1.65;;
69511;SDS011;56709;52.036;4.644;2022-07-23T09:43:11;5.67;;;1.93;;
69511;SDS011;56709;52.036;4.644;2022-07-23T09:45:38;4.00;;;1.75;;
69511;SDS011;56709;52.036;4.644;2022-07-23T09:48:24;4.18;;;1.80;;
69511;SDS011;56709;52.036;4.644;2022-07-23T09:50:50;7.82;;;1.90;;
69511;SDS011;56709;52.036;4.644;2022-07-23T09:53:25;5.03;;;2.27;;
69511;SDS011;56709;52.036;4.644;2022-07-23T09:55:51;5.10;;;2.10;;
69511;SDS011;56709;52.036;4.644;2022-07-23T09:58:18;5.88;;;2.33;;
69511;SDS011;56709;52.036;4.644;2022-07-23T10:00:46;2.55;;;1.90;;
69511;SDS011;56709;52.036;4.644;2022-07-23T10:03:14;5.22;;;2.05;;
69511;SDS011;56709;52.036;4.644;2022-07-23T10:05:40;5.32;;;2.50;;
69511;SDS011;56709;52.036;4.644;2022-07-23T10:08:08;4.15;;;1.80;;
69511;SDS011;56709;52.036;4.644;2022-07-23T10:10:38;5.50;;;2.35;;
69511;SDS011;56709;52.036;4.644;2022-07-23T10:13:04;5.65;;;1.90;;
69511;SDS011;56709;52.036;4.644;2022-07-23T10:15:48;2.83;;;1.73;;
69511;SDS011;56709;52.036;4.644;2022-07-23T10:20:40;6.30;;;2.00;;
69511;SDS011;56709;52.036;4.644;2022-07-23T10:23:18;6.63;;;2.30;;
69511;SDS011;56709;52.036;4.644;2022-07-23T10:29:02;2.40;;;1.60;;
69511;SDS011;56709;52.036;4.644;2022-07-23T10:34:14;5.78;;;2.28;;
69511;SDS011;56709;52.036;4.644;2022-07-23T10:36:42;4.13;;;2.13;;
69511;SDS011;56709;52.036;4.644;2022-07-23T10:39:21;4.60;;;2.35;;
69511;SDS011;56709;52.036;4.644;2022-07-23T10:41:49;3.42;;;2.22;;
69511;SDS011;56709;52.036;4.644;2022-07-23T10:44:16;3.22;;;1.98;;
69511;SDS011;56709;52.036;4.644;2022-07-23T10:46:53;3.17;;;2.20;;
69511;SDS011;56709;52.036;4.644;2022-07-23T10:49:44;5.60;;;2.15;;
69511;SDS011;56709;52.036;4.644;2022-07-23T10:54:49;4.13;;;2.10;;
69511;SDS011;56709;52.036;4.644;2022-07-23T10:57:16;3.22;;;2.25;;
69511;SDS011;56709;52.036;4.644;2022-07-23T11:05:24;4.85;;;3.25;;
69511;SDS011;56709;52.036;4.644;2022-07-23T11:10:40;6.38;;;3.50;;
69511;SDS011;56709;52.036;4.644;2022-07-23T11:31:54;7.20;;;3.20;;
69511;SDS011;56709;52.036;4.644;2022-07-23T11:37:09;5.93;;;3.30;;
69511;SDS011;56709;52.036;4.644;2022-07-23T11:39:36;5.90;;;2.95;;
69511;SDS011;56709;52.036;4.644;2022-07-23T11:44:31;6.68;;;3.00;;
69511;SDS011;56709;52.036;4.644;2022-07-23T11:46:58;5.95;;;3.70;;
69511;SDS011;56709;52.036;4.644;2022-07-23T11:49:25;4.38;;;3.03;;
69511;SDS011;56709;52.036;4.644;2022-07-23T11:54:32;4.97;;;3.00;;
69511;SDS011;56709;52.036;4.644;2022-07-23T11:56:58;6.70;;;3.40;;
69511;SDS011;56709;52.036;4.644;2022-07-23T11:59:26;5.63;;;2.53;;
69511;SDS011;56709;52.036;4.644;2022-07-23T12:04:37;4.43;;;2.70;;
69511;SDS011;56709;52.036;4.644;2022-07-23T12:07:03;6.53;;;3.50;;
69511;SDS011;56709;52.036;4.644;2022-07-23T12:09:29;3.43;;;2.20;;
69511;SDS011;56709;52.036;4.644;2022-07-23T12:11:58;6.60;;;2.63;;
69511;SDS011;56709;52.036;4.644;2022-07-23T12:14:24;7.03;;;2.92;;
69511;SDS011;56709;52.036;4.644;2022-07-23T12:19:34;3.95;;;1.92;;
69511;SDS011;56709;52.036;4.644;2022-07-23T12:22:00;3.90;;;1.83;;
69511;SDS011;56709;52.036;4.644;2022-07-23T12:24:25;3.77;;;1.60;;
69511;SDS011;56709;52.036;4.644;2022-07-23T12:29:36;3.17;;;1.80;;
69511;SDS011;56709;52.036;4.644;2022-07-23T12:32:02;2.95;;;1.83;;
69511;SDS011;56709;52.036;4.644;2022-07-23T12:34:27;4.35;;;1.55;;
69511;SDS011;56709;52.036;4.644;2022-07-23T12:36:53;2.50;;;1.75;;
69511;SDS011;56709;52.036;4.644;2022-07-23T12:39:31;3.50;;;1.80;;
69511;SDS011;56709;52.036;4.644;2022-07-23T12:41:57;5.10;;;1.50;;
69511;SDS011;56709;52.036;4.644;2022-07-23T12:44:22;2.57;;;1.60;;
69511;SDS011;56709;52.036;4.644;2022-07-23T12:46:54;6.30;;;2.00;;
69511;SDS011;56709;52.036;4.644;2022-07-23T12:49:26;3.35;;;1.67;;
69511;SDS011;56709;52.036;4.644;2022-07-23T12:51:52;4.38;;;1.67;;
69511;SDS011;56709;52.036;4.644;2022-07-23T12:54:26;5.83;;;2.30;;
69511;SDS011;56709;52.036;4.644;2022-07-23T12:56:53;4.70;;;2.20;;
69511;SDS011;56709;52.036;4.644;2022-07-23T12:59:18;3.60;;;2.03;;
69511;SDS011;56709;52.036;4.644;2022-07-23T13:01:44;4.60;;;2.10;;
69511;SDS011;56709;52.036;4.644;2022-07-23T13:04:20;7.73;;;2.47;;
69511;SDS011;56709;52.036;4.644;2022-07-23T13:09:13;4.13;;;2.60;;
69511;SDS011;56709;52.036;4.644;2022-07-23T13:11:40;8.82;;;3.35;;
69511;SDS011;56709;52.036;4.644;2022-07-23T13:14:06;4.00;;;2.80;;
69511;SDS011;56709;52.036;4.644;2022-07-23T13:16:32;5.03;;;2.58;;
69511;SDS011;56709;52.036;4.644;2022-07-23T13:18:58;5.13;;;3.10;;
69511;SDS011;56709;52.036;4.644;2022-07-23T13:21:25;3.92;;;2.70;;
69511;SDS011;56709;52.036;4.644;2022-07-23T13:23:52;5.53;;;1.83;;
69511;SDS011;56709;52.036;4.644;2022-07-23T13:26:17;3.80;;;2.03;;
69511;SDS011;56709;52.036;4.644;2022-07-23T13:28:43;4.60;;;2.13;;
69511;SDS011;56709;52.036;4.644;2022-07-23T13:31:09;4.90;;;3.00;;
69511;SDS011;56709;52.036;4.644;2022-07-23T13:33:34;5.67;;;3.17;;
69511;SDS011;56709;52.036;4.644;2022-07-23T13:36:00;5.57;;;2.90;;
69511;SDS011;56709;52.036;4.644;2022-07-23T13:38:25;6.50;;;2.87;;
69511;SDS011;56709;52.036;4.644;2022-07-23T13:40:51;3.40;;;2.37;;
69511;SDS011;56709;52.036;4.644;2022-07-23T13:45:43;7.78;;;2.28;;
69511;SDS011;56709;52.036;4.644;2022-07-23T13:48:10;4.95;;;2.63;;
69511;SDS011;56709;52.036;4.644;2022-07-23T13:50:36;5.97;;;3.10;;
69511;SDS011;56709;52.036;4.644;2022-07-23T13:53:05;4.07;;;2.75;;
69511;SDS011;56709;52.036;4.644;2022-07-23T13:55:35;4.13;;;2.70;;
69511;SDS011;56709;52.036;4.644;2022-07-23T14:00:27;3.77;;;2.60;;
69511;SDS011;56709;52.036;4.644;2022-07-23T14:07:44;5.13;;;2.97;;
69511;SDS011;56709;52.036;4.644;2022-07-23T14:10:12;4.50;;;2.83;;
69511;SDS011;56709;52.036;4.644;2022-07-23T14:12:37;5.50;;;3.47;;
69511;SDS011;56709;52.036;4.644;2022-07-23T14:15:03;9.07;;;3.50;;
69511;SDS011;56709;52.036;4.644;2022-07-23T14:17:30;4.55;;;2.45;;
69511;SDS011;56709;52.036;4.644;2022-07-23T14:19:56;4.90;;;2.88;;
69511;SDS011;56709;52.036;4.644;2022-07-23T14:22:22;8.37;;;3.00;;
69511;SDS011;56709;52.036;4.644;2022-07-23T14:24:48;4.78;;;2.97;;
69511;SDS011;56709;52.036;4.644;2022-07-23T14:27:14;4.27;;;2.83;;
69511;SDS011;56709;52.036;4.644;2022-07-23T14:29:39;5.10;;;2.70;;
69511;SDS011;56709;52.036;4.644;2022-07-23T14:32:05;3.27;;;2.43;;
69511;SDS011;56709;52.036;4.644;2022-07-23T14:34:30;5.17;;;2.70;;
69511;SDS011;56709;52.036;4.644;2022-07-23T14:36:56;3.70;;;2.27;;
69511;SDS011;56709;52.036;4.644;2022-07-23T14:39:22;5.35;;;2.58;;
69511;SDS011;56709;52.036;4.644;2022-07-23T14:41:48;3.10;;;2.37;;
69511;SDS011;56709;52.036;4.644;2022-07-23T14:44:13;4.03;;;3.10;;
69511;SDS011;56709;52.036;4.644;2022-07-23T14:46:39;6.07;;;2.40;;
69511;SDS011;56709;52.036;4.644;2022-07-23T14:49:04;3.33;;;2.07;;
69511;SDS011;56709;52.036;4.644;2022-07-23T14:51:29;6.67;;;2.37;;
69511;SDS011;56709;52.036;4.644;2022-07-23T14:53:55;3.90;;;2.20;;
69511;SDS011;56709;52.036;4.644;2022-07-23T14:56:20;3.50;;;2.30;;
69511;SDS011;56709;52.036;4.644;2022-07-23T14:58:46;5.47;;;2.20;;
69511;SDS011;56709;52.036;4.644;2022-07-23T15:01:15;4.97;;;2.30;;
69511;SDS011;56709;52.036;4.644;2022-07-23T15:03:41;6.75;;;2.00;;
69511;SDS011;56709;52.036;4.644;2022-07-23T15:06:09;6.23;;;2.43;;
69511;SDS011;56709;52.036;4.644;2022-07-23T15:08:35;3.55;;;2.20;;
69511;SDS011;56709;52.036;4.644;2022-07-23T15:11:00;5.03;;;2.57;;
69511;SDS011;56709;52.036;4.644;2022-07-23T15:13:25;5.20;;;2.83;;
69511;SDS011;56709;52.036;4.644;2022-07-23T15:15:51;5.07;;;2.30;;
69511;SDS011;56709;52.036;4.644;2022-07-23T15:18:17;7.40;;;3.30;;
69511;SDS011;56709;52.036;4.644;2022-07-23T15:20:42;4.97;;;2.50;;
69511;SDS011;56709;52.036;4.644;2022-07-23T15:23:08;9.70;;;2.77;;
69511;SDS011;56709;52.036;4.644;2022-07-23T15:25:34;5.33;;;2.97;;
69511;SDS011;56709;52.036;4.644;2022-07-23T15:30:26;5.80;;;2.97;;
69511;SDS011;56709;52.036;4.644;2022-07-23T15:37:43;5.60;;;2.70;;
69511;SDS011;56709;52.036;4.644;2022-07-23T15:40:09;3.33;;;2.43;;
69511;SDS011;56709;52.036;4.644;2022-07-23T15:42:35;3.77;;;2.50;;
69511;SDS011;56709;52.036;4.644;2022-07-23T15:45:01;6.83;;;4.30;;
69511;SDS011;56709;52.036;4.644;2022-07-23T15:47:26;4.93;;;3.23;;
69511;SDS011;56709;52.036;4.644;2022-07-23T15:49:52;3.47;;;2.80;;
69511;SDS011;56709;52.036;4.644;2022-07-23T15:52:17;5.47;;;3.10;;
69511;SDS011;56709;52.036;4.644;2022-07-23T15:54:42;3.97;;;2.93;;
69511;SDS011;56709;52.036;4.644;2022-07-23T15:57:08;6.23;;;2.40;;
69511;SDS011;56709;52.036;4.644;2022-07-23T15:59:33;4.67;;;2.43;;
69511;SDS011;56709;52.036;4.644;2022-07-23T16:01:59;7.03;;;2.90;;
69511;SDS011;56709;52.036;4.644;2022-07-23T16:04:24;3.33;;;2.50;;